sensor_id;sensor_type;location;lat;lon;timestamp;temperature;humidity
31733;DHT22;18312;51.486;7.144;2023-05-06T00:00:47;10.40;99.90
31733;DHT22;18312;51.486;7.144;2023-05-06T00:03:14;10.40;99.90
31733;DHT22;18312;51.486;7.144;2023-05-06T00:05:41;10.30;99.90
31733;DHT22;18312;51.486;7.144;2023-05-06T00:08:10;10.40;99.90
31733;DHT22;18312;51.486;7.144;2023-05-06T00:10:36;10.40;99.90
31733;DHT22;18312;51.486;7.144;2023-05-06T00:16:07;10.30;99.90
31733;DHT22;18312;51.486;7.144;2023-05-06T00:18:34;10.20;99.90
31733;DHT22;18312;51.486;7.144;2023-05-06T00:21:01;10.10;99.90
31733;DHT22;18312;51.486;7.144;2023-05-06T00:23:27;10.10;99.90
31733;DHT22;18312;51.486;7.144;2023-05-06T00:25:54;10.10;99.90
31733;DHT22;18312;51.486;7.144;2023-05-06T00:28:20;10.20;99.90
31733;DHT22;18312;51.486;7.144;2023-05-06T00:30:47;10.10;99.90
31733;DHT22;18312;51.486;7.144;2023-05-06T00:33:15;10.00;99.90
31733;DHT22;18312;51.486;7.144;2023-05-06T00:35:42;9.90;99.90
31733;DHT22;18312;51.486;7.144;2023-05-06T00:38:09;9.90;99.90
31733;DHT22;18312;51.486;7.144;2023-05-06T00:40:36;9.80;99.90
31733;DHT22;18312;51.486;7.144;2023-05-06T00:43:02;9.80;99.90
31733;DHT22;18312;51.486;7.144;2023-05-06T00:45:29;9.80;99.90
31733;DHT22;18312;51.486;7.144;2023-05-06T00:47:56;9.70;99.90
31733;DHT22;18312;51.486;7.144;2023-05-06T00:50:24;9.70;99.90
31733;DHT22;18312;51.486;7.144;2023-05-06T00:52:52;9.80;99.90
31733;DHT22;18312;51.486;7.144;2023-05-06T00:55:19;9.80;99.90
31733;DHT22;18312;51.486;7.144;2023-05-06T00:57:46;9.70;99.90
31733;DHT22;18312;51.486;7.144;2023-05-06T01:00:13;9.70;99.90
31733;DHT22;18312;51.486;7.144;2023-05-06T01:02:40;9.70;99.90
31733;DHT22;18312;51.486;7.144;2023-05-06T01:05:07;9.80;99.90
31733;DHT22;18312;51.486;7.144;2023-05-06T01:07:38;9.90;99.90
31733;DHT22;18312;51.486;7.144;2023-05-06T01:10:07;10.00;99.90
31733;DHT22;18312;51.486;7.144;2023-05-06T01:12:40;10.00;99.90
31733;DHT22;18312;51.486;7.144;2023-05-06T01:15:10;9.90;99.90
31733;DHT22;18312;51.486;7.144;2023-05-06T01:17:41;9.80;99.90
31733;DHT22;18312;51.486;7.144;2023-05-06T01:20:09;9.90;99.90
31733;DHT22;18312;51.486;7.144;2023-05-06T01:22:37;10.00;99.90
31733;DHT22;18312;51.486;7.144;2023-05-06T01:25:06;10.10;99.90
31733;DHT22;18312;51.486;7.144;2023-05-06T01:27:32;10.10;99.90
31733;DHT22;18312;51.486;7.144;2023-05-06T01:29:59;10.00;99.90
31733;DHT22;18312;51.486;7.144;2023-05-06T01:32:38;10.00;99.90
31733;DHT22;18312;51.486;7.144;2023-05-06T01:35:09;10.00;99.90
31733;DHT22;18312;51.486;7.144;2023-05-06T01:37:39;9.90;99.90
31733;DHT22;18312;51.486;7.144;2023-05-06T01:40:08;9.80;99.90
31733;DHT22;18312;51.486;7.144;2023-05-06T01:42:35;9.80;99.90
31733;DHT22;18312;51.486;7.144;2023-05-06T01:45:03;9.60;99.90
31733;DHT22;18312;51.486;7.144;2023-05-06T01:47:30;9.60;99.90
31733;DHT22;18312;51.486;7.144;2023-05-06T01:49:57;9.60;99.90
31733;DHT22;18312;51.486;7.144;2023-05-06T01:52:24;9.50;99.90
31733;DHT22;18312;51.486;7.144;2023-05-06T01:54:51;9.40;99.90
31733;DHT22;18312;51.486;7.144;2023-05-06T01:57:19;9.50;99.90
31733;DHT22;18312;51.486;7.144;2023-05-06T01:59:46;9.50;99.90
31733;DHT22;18312;51.486;7.144;2023-05-06T02:02:12;9.50;99.90
31733;DHT22;18312;51.486;7.144;2023-05-06T02:04:39;9.40;99.90
31733;DHT22;18312;51.486;7.144;2023-05-06T02:07:05;9.30;99.90
31733;DHT22;18312;51.486;7.144;2023-05-06T02:09:32;9.20;99.90
31733;DHT22;18312;51.486;7.144;2023-05-06T02:11:59;9.20;99.90
31733;DHT22;18312;51.486;7.144;2023-05-06T02:14:27;9.30;99.90
31733;DHT22;18312;51.486;7.144;2023-05-06T02:16:54;9.30;99.90
31733;DHT22;18312;51.486;7.144;2023-05-06T02:19:20;9.30;99.90
31733;DHT22;18312;51.486;7.144;2023-05-06T02:21:47;9.30;99.90
31733;DHT22;18312;51.486;7.144;2023-05-06T02:24:13;9.30;99.90
31733;DHT22;18312;51.486;7.144;2023-05-06T02:26:40;9.30;99.90
31733;DHT22;18312;51.486;7.144;2023-05-06T02:29:06;9.20;99.90
31733;DHT22;18312;51.486;7.144;2023-05-06T02:31:34;9.00;99.90
31733;DHT22;18312;51.486;7.144;2023-05-06T02:34:01;8.90;99.90
31733;DHT22;18312;51.486;7.144;2023-05-06T02:36:27;9.00;99.90
31733;DHT22;18312;51.486;7.144;2023-05-06T02:38:54;9.00;99.90
31733;DHT22;18312;51.486;7.144;2023-05-06T02:41:21;9.00;99.90
31733;DHT22;18312;51.486;7.144;2023-05-06T02:43:47;9.00;99.90
31733;DHT22;18312;51.486;7.144;2023-05-06T02:46:14;9.00;99.90
31733;DHT22;18312;51.486;7.144;2023-05-06T02:48:42;9.00;99.90
31733;DHT22;18312;51.486;7.144;2023-05-06T02:51:08;9.00;99.90
31733;DHT22;18312;51.486;7.144;2023-05-06T02:53:35;8.80;99.90
31733;DHT22;18312;51.486;7.144;2023-05-06T02:56:02;8.70;99.90
31733;DHT22;18312;51.486;7.144;2023-05-06T02:58:28;8.70;99.90
31733;DHT22;18312;51.486;7.144;2023-05-06T03:00:55;8.70;99.90
31733;DHT22;18312;51.486;7.144;2023-05-06T03:03:21;8.70;99.90
31733;DHT22;18312;51.486;7.144;2023-05-06T03:05:49;8.80;99.90
31733;DHT22;18312;51.486;7.144;2023-05-06T03:08:16;8.90;99.90
31733;DHT22;18312;51.486;7.144;2023-05-06T03:10:43;8.80;99.90
31733;DHT22;18312;51.486;7.144;2023-05-06T03:13:10;8.70;99.90
31733;DHT22;18312;51.486;7.144;2023-05-06T03:15:37;8.60;99.90
31733;DHT22;18312;51.486;7.144;2023-05-06T03:18:03;8.40;99.90
31733;DHT22;18312;51.486;7.144;2023-05-06T03:20:30;8.40;99.90
31733;DHT22;18312;51.486;7.144;2023-05-06T03:22:58;8.40;99.90
31733;DHT22;18312;51.486;7.144;2023-05-06T03:25:25;8.40;99.90
31733;DHT22;18312;51.486;7.144;2023-05-06T03:27:51;8.50;99.90
31733;DHT22;18312;51.486;7.144;2023-05-06T03:30:18;8.50;99.90
31733;DHT22;18312;51.486;7.144;2023-05-06T03:32:46;8.50;99.90
31733;DHT22;18312;51.486;7.144;2023-05-06T03:35:12;8.50;99.90
31733;DHT22;18312;51.486;7.144;2023-05-06T03:37:40;8.50;99.90
31733;DHT22;18312;51.486;7.144;2023-05-06T03:40:08;8.50;99.90
31733;DHT22;18312;51.486;7.144;2023-05-06T03:42:35;8.50;99.90
31733;DHT22;18312;51.486;7.144;2023-05-06T03:45:01;8.60;99.90
31733;DHT22;18312;51.486;7.144;2023-05-06T03:47:28;8.70;99.90
31733;DHT22;18312;51.486;7.144;2023-05-06T03:49:55;8.70;99.90
31733;DHT22;18312;51.486;7.144;2023-05-06T03:52:21;8.70;99.90
31733;DHT22;18312;51.486;7.144;2023-05-06T03:54:48;8.70;99.90
31733;DHT22;18312;51.486;7.144;2023-05-06T03:57:16;8.70;99.90
31733;DHT22;18312;51.486;7.144;2023-05-06T03:59:42;8.70;99.90
31733;DHT22;18312;51.486;7.144;2023-05-06T04:02:09;8.70;99.90
31733;DHT22;18312;51.486;7.144;2023-05-06T04:04:36;8.70;99.90
31733;DHT22;18312;51.486;7.144;2023-05-06T04:07:02;8.70;99.90
31733;DHT22;18312;51.486;7.144;2023-05-06T04:09:30;8.60;99.90
31733;DHT22;18312;51.486;7.144;2023-05-06T04:11:58;8.50;99.90
31733;DHT22;18312;51.486;7.144;2023-05-06T04:14:27;8.50;99.90
31733;DHT22;18312;51.486;7.144;2023-05-06T04:16:54;8.60;99.90
31733;DHT22;18312;51.486;7.144;2023-05-06T04:19:21;8.60;99.90
31733;DHT22;18312;51.486;7.144;2023-05-06T04:21:48;8.70;99.90
31733;DHT22;18312;51.486;7.144;2023-05-06T04:24:14;8.70;99.90
31733;DHT22;18312;51.486;7.144;2023-05-06T04:26:41;8.80;99.90
31733;DHT22;18312;51.486;7.144;2023-05-06T04:29:07;8.80;99.90
31733;DHT22;18312;51.486;7.144;2023-05-06T04:31:36;8.90;99.90
31733;DHT22;18312;51.486;7.144;2023-05-06T04:34:02;8.80;99.90
31733;DHT22;18312;51.486;7.144;2023-05-06T04:36:29;9.00;99.90
31733;DHT22;18312;51.486;7.144;2023-05-06T04:38:56;9.10;99.90
31733;DHT22;18312;51.486;7.144;2023-05-06T04:41:22;9.10;99.90
31733;DHT22;18312;51.486;7.144;2023-05-06T04:43:50;9.00;99.90
31733;DHT22;18312;51.486;7.144;2023-05-06T04:46:16;8.90;99.90
31733;DHT22;18312;51.486;7.144;2023-05-06T04:48:44;9.00;99.90
31733;DHT22;18312;51.486;7.144;2023-05-06T04:51:11;9.10;99.90
31733;DHT22;18312;51.486;7.144;2023-05-06T04:53:37;9.20;99.90
31733;DHT22;18312;51.486;7.144;2023-05-06T04:56:05;9.20;99.90
31733;DHT22;18312;51.486;7.144;2023-05-06T04:58:31;9.20;99.90
31733;DHT22;18312;51.486;7.144;2023-05-06T05:01:00;9.20;99.90
31733;DHT22;18312;51.486;7.144;2023-05-06T05:03:26;9.20;99.90
31733;DHT22;18312;51.486;7.144;2023-05-06T05:05:54;9.30;99.90
31733;DHT22;18312;51.486;7.144;2023-05-06T05:08:21;9.40;99.90
31733;DHT22;18312;51.486;7.144;2023-05-06T05:10:47;9.40;99.90
31733;DHT22;18312;51.486;7.144;2023-05-06T05:13:14;9.50;99.90
31733;DHT22;18312;51.486;7.144;2023-05-06T05:15:41;9.60;99.90
31733;DHT22;18312;51.486;7.144;2023-05-06T05:18:07;9.60;99.90
31733;DHT22;18312;51.486;7.144;2023-05-06T05:20:34;9.70;99.90
31733;DHT22;18312;51.486;7.144;2023-05-06T05:23:02;9.80;99.90
31733;DHT22;18312;51.486;7.144;2023-05-06T05:25:29;9.90;99.90
31733;DHT22;18312;51.486;7.144;2023-05-06T05:27:55;10.10;99.90
31733;DHT22;18312;51.486;7.144;2023-05-06T05:30:22;10.30;99.90
31733;DHT22;18312;51.486;7.144;2023-05-06T05:32:49;10.40;99.90
31733;DHT22;18312;51.486;7.144;2023-05-06T05:35:15;10.50;99.90
31733;DHT22;18312;51.486;7.144;2023-05-06T05:37:42;10.90;99.90
31733;DHT22;18312;51.486;7.144;2023-05-06T05:40:10;11.20;99.90
31733;DHT22;18312;51.486;7.144;2023-05-06T05:42:37;11.30;99.90
31733;DHT22;18312;51.486;7.144;2023-05-06T05:45:04;11.40;99.90
31733;DHT22;18312;51.486;7.144;2023-05-06T05:47:31;11.80;99.90
31733;DHT22;18312;51.486;7.144;2023-05-06T05:49:57;12.20;99.90
31733;DHT22;18312;51.486;7.144;2023-05-06T05:52:24;12.40;99.90
31733;DHT22;18312;51.486;7.144;2023-05-06T05:54:51;12.30;99.90
31733;DHT22;18312;51.486;7.144;2023-05-06T05:57:19;12.60;99.90
31733;DHT22;18312;51.486;7.144;2023-05-06T05:59:46;13.00;99.90
31733;DHT22;18312;51.486;7.144;2023-05-06T06:02:12;13.00;99.90
31733;DHT22;18312;51.486;7.144;2023-05-06T06:04:39;13.10;99.90
31733;DHT22;18312;51.486;7.144;2023-05-06T06:07:05;13.50;99.90
31733;DHT22;18312;51.486;7.144;2023-05-06T06:09:32;13.60;99.90
31733;DHT22;18312;51.486;7.144;2023-05-06T06:11:59;13.90;99.90
31733;DHT22;18312;51.486;7.144;2023-05-06T06:14:27;14.70;99.90
31733;DHT22;18312;51.486;7.144;2023-05-06T06:16:54;15.30;99.90
31733;DHT22;18312;51.486;7.144;2023-05-06T06:19:20;15.20;99.90
31733;DHT22;18312;51.486;7.144;2023-05-06T06:21:47;15.50;99.90
31733;DHT22;18312;51.486;7.144;2023-05-06T06:24:14;15.40;99.90
31733;DHT22;18312;51.486;7.144;2023-05-06T06:26:40;15.50;99.90
31733;DHT22;18312;51.486;7.144;2023-05-06T06:29:07;15.60;99.90
31733;DHT22;18312;51.486;7.144;2023-05-06T06:31:35;17.50;99.90
31733;DHT22;18312;51.486;7.144;2023-05-06T06:34:01;18.10;99.90
31733;DHT22;18312;51.486;7.144;2023-05-06T06:36:30;17.70;99.90
31733;DHT22;18312;51.486;7.144;2023-05-06T06:38:57;17.40;99.90
31733;DHT22;18312;51.486;7.144;2023-05-06T06:41:23;16.30;99.90
31733;DHT22;18312;51.486;7.144;2023-05-06T06:43:52;15.90;99.90
31733;DHT22;18312;51.486;7.144;2023-05-06T06:46:19;15.70;99.90
31733;DHT22;18312;51.486;7.144;2023-05-06T06:48:48;16.00;99.90
31733;DHT22;18312;51.486;7.144;2023-05-06T06:51:14;16.40;99.90
31733;DHT22;18312;51.486;7.144;2023-05-06T06:53:41;16.50;99.90
31733;DHT22;18312;51.486;7.144;2023-05-06T06:56:08;17.10;99.90
31733;DHT22;18312;51.486;7.144;2023-05-06T06:58:35;17.20;99.90
31733;DHT22;18312;51.486;7.144;2023-05-06T07:01:02;16.70;99.90
31733;DHT22;18312;51.486;7.144;2023-05-06T07:03:29;16.10;99.90
31733;DHT22;18312;51.486;7.144;2023-05-06T07:05:57;15.80;99.90
31733;DHT22;18312;51.486;7.144;2023-05-06T07:08:23;16.00;99.90
31733;DHT22;18312;51.486;7.144;2023-05-06T07:10:50;17.80;99.90
31733;DHT22;18312;51.486;7.144;2023-05-06T07:13:16;18.50;99.90
31733;DHT22;18312;51.486;7.144;2023-05-06T07:15:48;18.00;99.90
31733;DHT22;18312;51.486;7.144;2023-05-06T07:18:14;17.30;99.90
31733;DHT22;18312;51.486;7.144;2023-05-06T07:20:41;16.80;99.90
31733;DHT22;18312;51.486;7.144;2023-05-06T07:23:09;17.60;99.90
31733;DHT22;18312;51.486;7.144;2023-05-06T07:25:36;19.30;99.90
31733;DHT22;18312;51.486;7.144;2023-05-06T07:28:02;19.20;99.90
31733;DHT22;18312;51.486;7.144;2023-05-06T07:30:30;18.40;99.90
31733;DHT22;18312;51.486;7.144;2023-05-06T07:32:56;17.90;99.90
31733;DHT22;18312;51.486;7.144;2023-05-06T07:35:23;17.60;99.90
31733;DHT22;18312;51.486;7.144;2023-05-06T07:37:49;17.60;99.90
31733;DHT22;18312;51.486;7.144;2023-05-06T07:40:18;17.70;99.90
31733;DHT22;18312;51.486;7.144;2023-05-06T07:42:50;17.60;99.90
31733;DHT22;18312;51.486;7.144;2023-05-06T07:45:17;17.60;99.90
31733;DHT22;18312;51.486;7.144;2023-05-06T07:47:47;17.70;99.90
31733;DHT22;18312;51.486;7.144;2023-05-06T07:50:14;18.00;99.90
31733;DHT22;18312;51.486;7.144;2023-05-06T07:52:40;17.90;99.90
31733;DHT22;18312;51.486;7.144;2023-05-06T07:55:08;18.30;99.90
31733;DHT22;18312;51.486;7.144;2023-05-06T07:57:36;18.10;99.90
31733;DHT22;18312;51.486;7.144;2023-05-06T08:00:03;17.90;99.90
31733;DHT22;18312;51.486;7.144;2023-05-06T08:02:30;19.10;99.90
31733;DHT22;18312;51.486;7.144;2023-05-06T08:04:57;19.30;99.90
31733;DHT22;18312;51.486;7.144;2023-05-06T08:07:23;18.80;99.90
31733;DHT22;18312;51.486;7.144;2023-05-06T08:09:50;18.40;99.90
31733;DHT22;18312;51.486;7.144;2023-05-06T08:12:16;18.30;99.90
31733;DHT22;18312;51.486;7.144;2023-05-06T08:14:44;17.80;99.90
31733;DHT22;18312;51.486;7.144;2023-05-06T08:17:13;17.60;99.90
31733;DHT22;18312;51.486;7.144;2023-05-06T08:19:40;17.50;99.90
31733;DHT22;18312;51.486;7.144;2023-05-06T08:22:06;17.50;99.90
31733;DHT22;18312;51.486;7.144;2023-05-06T08:24:33;17.50;99.90
31733;DHT22;18312;51.486;7.144;2023-05-06T08:27:00;17.50;99.90
31733;DHT22;18312;51.486;7.144;2023-05-06T08:29:27;17.40;99.90
31733;DHT22;18312;51.486;7.144;2023-05-06T08:31:55;17.40;99.90
31733;DHT22;18312;51.486;7.144;2023-05-06T08:34:22;17.60;99.90
31733;DHT22;18312;51.486;7.144;2023-05-06T08:36:48;17.70;99.90
31733;DHT22;18312;51.486;7.144;2023-05-06T08:39:15;18.10;99.90
31733;DHT22;18312;51.486;7.144;2023-05-06T08:41:43;18.00;99.90
31733;DHT22;18312;51.486;7.144;2023-05-06T08:44:13;17.80;99.90
31733;DHT22;18312;51.486;7.144;2023-05-06T08:46:40;19.90;99.90
31733;DHT22;18312;51.486;7.144;2023-05-06T08:49:08;21.80;95.80
31733;DHT22;18312;51.486;7.144;2023-05-06T08:51:35;21.60;96.60
31733;DHT22;18312;51.486;7.144;2023-05-06T08:54:03;22.50;95.00
31733;DHT22;18312;51.486;7.144;2023-05-06T08:56:31;21.90;95.10
31733;DHT22;18312;51.486;7.144;2023-05-06T08:58:58;21.30;97.20
31733;DHT22;18312;51.486;7.144;2023-05-06T09:01:25;20.90;97.60
31733;DHT22;18312;51.486;7.144;2023-05-06T09:03:52;21.00;97.40
31733;DHT22;18312;51.486;7.144;2023-05-06T09:06:21;20.50;97.20
31733;DHT22;18312;51.486;7.144;2023-05-06T09:08:48;20.20;98.90
31733;DHT22;18312;51.486;7.144;2023-05-06T09:11:18;20.20;98.20
31733;DHT22;18312;51.486;7.144;2023-05-06T09:13:45;20.60;98.70
31733;DHT22;18312;51.486;7.144;2023-05-06T09:16:19;20.40;96.80
31733;DHT22;18312;51.486;7.144;2023-05-06T09:18:51;20.50;98.00
31733;DHT22;18312;51.486;7.144;2023-05-06T09:21:18;20.60;96.90
31733;DHT22;18312;51.486;7.144;2023-05-06T09:23:46;20.80;96.70
31733;DHT22;18312;51.486;7.144;2023-05-06T09:26:13;21.00;95.70
31733;DHT22;18312;51.486;7.144;2023-05-06T09:28:39;21.60;94.60
31733;DHT22;18312;51.486;7.144;2023-05-06T09:31:12;22.90;91.00
31733;DHT22;18312;51.486;7.144;2023-05-06T09:33:39;23.70;90.70
31733;DHT22;18312;51.486;7.144;2023-05-06T09:36:06;23.70;90.20
31733;DHT22;18312;51.486;7.144;2023-05-06T09:38:32;22.70;91.20
31733;DHT22;18312;51.486;7.144;2023-05-06T09:41:01;23.20;90.20
31733;DHT22;18312;51.486;7.144;2023-05-06T09:43:28;23.50;87.20
31733;DHT22;18312;51.486;7.144;2023-05-06T09:45:55;24.20;86.80
31733;DHT22;18312;51.486;7.144;2023-05-06T09:48:22;24.30;87.50
31733;DHT22;18312;51.486;7.144;2023-05-06T09:50:48;23.60;85.40
31733;DHT22;18312;51.486;7.144;2023-05-06T09:53:15;22.90;84.40
31733;DHT22;18312;51.486;7.144;2023-05-06T09:55:42;22.40;87.30
31733;DHT22;18312;51.486;7.144;2023-05-06T09:58:11;22.50;87.30
31733;DHT22;18312;51.486;7.144;2023-05-06T10:00:38;22.20;90.00
31733;DHT22;18312;51.486;7.144;2023-05-06T10:03:05;22.00;90.40
31733;DHT22;18312;51.486;7.144;2023-05-06T10:05:31;22.30;90.40
31733;DHT22;18312;51.486;7.144;2023-05-06T10:07:58;22.30;87.70
31733;DHT22;18312;51.486;7.144;2023-05-06T10:10:25;22.50;87.60
31733;DHT22;18312;51.486;7.144;2023-05-06T10:12:52;21.40;88.00
31733;DHT22;18312;51.486;7.144;2023-05-06T10:15:21;21.30;90.80
31733;DHT22;18312;51.486;7.144;2023-05-06T10:17:48;21.30;88.70
31733;DHT22;18312;51.486;7.144;2023-05-06T10:20:16;21.30;87.70
31733;DHT22;18312;51.486;7.144;2023-05-06T10:22:46;21.90;86.60
31733;DHT22;18312;51.486;7.144;2023-05-06T10:25:17;22.00;85.80
31733;DHT22;18312;51.486;7.144;2023-05-06T10:27:47;22.20;83.80
31733;DHT22;18312;51.486;7.144;2023-05-06T10:30:14;22.40;84.60
31733;DHT22;18312;51.486;7.144;2023-05-06T10:32:43;22.40;82.90
31733;DHT22;18312;51.486;7.144;2023-05-06T10:35:11;21.60;80.00
31733;DHT22;18312;51.486;7.144;2023-05-06T10:37:39;21.10;82.30
31733;DHT22;18312;51.486;7.144;2023-05-06T10:40:07;21.70;80.90
31733;DHT22;18312;51.486;7.144;2023-05-06T10:42:34;21.70;81.00
31733;DHT22;18312;51.486;7.144;2023-05-06T10:45:01;22.20;81.80
31733;DHT22;18312;51.486;7.144;2023-05-06T10:47:33;22.50;77.50
31733;DHT22;18312;51.486;7.144;2023-05-06T10:50:21;22.70;78.40
31733;DHT22;18312;51.486;7.144;2023-05-06T10:52:49;22.90;76.20
31733;DHT22;18312;51.486;7.144;2023-05-06T10:55:26;23.20;79.20
31733;DHT22;18312;51.486;7.144;2023-05-06T10:57:53;23.10;77.20
31733;DHT22;18312;51.486;7.144;2023-05-06T11:00:21;22.80;76.00
31733;DHT22;18312;51.486;7.144;2023-05-06T11:02:49;22.90;77.30
31733;DHT22;18312;51.486;7.144;2023-05-06T11:05:16;22.70;75.60
31733;DHT22;18312;51.486;7.144;2023-05-06T11:07:44;23.10;80.90
31733;DHT22;18312;51.486;7.144;2023-05-06T11:10:11;23.00;75.50
31733;DHT22;18312;51.486;7.144;2023-05-06T11:12:42;23.00;77.10
31733;DHT22;18312;51.486;7.144;2023-05-06T11:17:54;23.40;72.30
31733;DHT22;18312;51.486;7.144;2023-05-06T11:20:21;23.40;73.10
31733;DHT22;18312;51.486;7.144;2023-05-06T11:22:50;23.40;70.50
31733;DHT22;18312;51.486;7.144;2023-05-06T11:28:05;23.80;72.50
31733;DHT22;18312;51.486;7.144;2023-05-06T11:30:32;23.90;71.30
31733;DHT22;18312;51.486;7.144;2023-05-06T11:32:58;24.10;68.80
31733;DHT22;18312;51.486;7.144;2023-05-06T11:35:33;24.30;73.70
31733;DHT22;18312;51.486;7.144;2023-05-06T11:38:01;24.20;70.90
31733;DHT22;18312;51.486;7.144;2023-05-06T11:40:27;24.10;72.50
31733;DHT22;18312;51.486;7.144;2023-05-06T11:42:54;24.40;67.80
31733;DHT22;18312;51.486;7.144;2023-05-06T11:45:21;24.80;69.80
31733;DHT22;18312;51.486;7.144;2023-05-06T11:47:47;25.10;68.60
31733;DHT22;18312;51.486;7.144;2023-05-06T11:50:14;25.40;69.60
31733;DHT22;18312;51.486;7.144;2023-05-06T11:52:41;25.50;69.50
31733;DHT22;18312;51.486;7.144;2023-05-06T11:55:09;25.10;67.70
31733;DHT22;18312;51.486;7.144;2023-05-06T11:57:40;24.90;67.40
31733;DHT22;18312;51.486;7.144;2023-05-06T12:00:09;24.60;66.80
31733;DHT22;18312;51.486;7.144;2023-05-06T12:02:37;24.10;65.20
31733;DHT22;18312;51.486;7.144;2023-05-06T12:05:04;23.80;65.40
31733;DHT22;18312;51.486;7.144;2023-05-06T12:07:31;23.70;65.40
31733;DHT22;18312;51.486;7.144;2023-05-06T12:09:57;24.10;65.50
31733;DHT22;18312;51.486;7.144;2023-05-06T12:12:29;24.50;65.80
31733;DHT22;18312;51.486;7.144;2023-05-06T12:14:57;24.70;64.90
31733;DHT22;18312;51.486;7.144;2023-05-06T12:17:24;24.60;64.50
31733;DHT22;18312;51.486;7.144;2023-05-06T12:19:51;24.10;67.80
31733;DHT22;18312;51.486;7.144;2023-05-06T12:22:18;24.10;66.80
31733;DHT22;18312;51.486;7.144;2023-05-06T12:24:45;23.80;66.80
31733;DHT22;18312;51.486;7.144;2023-05-06T12:27:11;23.90;67.50
31733;DHT22;18312;51.486;7.144;2023-05-06T12:29:40;24.20;64.90
31733;DHT22;18312;51.486;7.144;2023-05-06T12:32:16;23.70;66.70
31733;DHT22;18312;51.486;7.144;2023-05-06T12:34:43;24.70;65.50
31733;DHT22;18312;51.486;7.144;2023-05-06T12:37:09;25.40;65.40
31733;DHT22;18312;51.486;7.144;2023-05-06T12:39:37;25.40;63.30
31733;DHT22;18312;51.486;7.144;2023-05-06T12:42:03;25.60;63.70
31733;DHT22;18312;51.486;7.144;2023-05-06T12:44:31;25.50;62.20
31733;DHT22;18312;51.486;7.144;2023-05-06T12:46:59;23.90;61.70
31733;DHT22;18312;51.486;7.144;2023-05-06T12:49:26;24.00;64.40
31733;DHT22;18312;51.486;7.144;2023-05-06T12:52:06;24.40;64.70
31733;DHT22;18312;51.486;7.144;2023-05-06T12:54:33;24.70;61.40
31733;DHT22;18312;51.486;7.144;2023-05-06T12:56:59;24.60;64.10
31733;DHT22;18312;51.486;7.144;2023-05-06T12:59:26;24.80;61.10
31733;DHT22;18312;51.486;7.144;2023-05-06T13:01:53;24.90;62.00
31733;DHT22;18312;51.486;7.144;2023-05-06T13:04:21;24.80;64.00
31733;DHT22;18312;51.486;7.144;2023-05-06T13:06:48;25.10;65.00
31733;DHT22;18312;51.486;7.144;2023-05-06T13:09:15;25.30;60.30
31733;DHT22;18312;51.486;7.144;2023-05-06T13:11:41;25.00;60.70
31733;DHT22;18312;51.486;7.144;2023-05-06T13:14:08;24.70;63.10
31733;DHT22;18312;51.486;7.144;2023-05-06T13:16:35;24.90;60.80
31733;DHT22;18312;51.486;7.144;2023-05-06T13:19:02;24.50;60.90
31733;DHT22;18312;51.486;7.144;2023-05-06T13:21:30;24.80;59.90
31733;DHT22;18312;51.486;7.144;2023-05-06T13:23:57;25.00;59.60
31733;DHT22;18312;51.486;7.144;2023-05-06T13:26:23;25.40;59.80
31733;DHT22;18312;51.486;7.144;2023-05-06T13:28:51;25.20;60.30
31733;DHT22;18312;51.486;7.144;2023-05-06T13:31:17;25.10;59.40
31733;DHT22;18312;51.486;7.144;2023-05-06T13:33:44;25.30;60.20
31733;DHT22;18312;51.486;7.144;2023-05-06T13:36:11;25.50;58.60
31733;DHT22;18312;51.486;7.144;2023-05-06T13:38:39;25.40;58.40
31733;DHT22;18312;51.486;7.144;2023-05-06T13:41:05;25.40;58.70
31733;DHT22;18312;51.486;7.144;2023-05-06T13:43:33;25.70;58.40
31733;DHT22;18312;51.486;7.144;2023-05-06T13:45:59;25.60;56.80
31733;DHT22;18312;51.486;7.144;2023-05-06T13:48:26;25.40;56.70
31733;DHT22;18312;51.486;7.144;2023-05-06T13:50:52;25.70;57.90
31733;DHT22;18312;51.486;7.144;2023-05-06T13:53:19;25.80;56.30
31733;DHT22;18312;51.486;7.144;2023-05-06T13:55:48;26.00;57.20
31733;DHT22;18312;51.486;7.144;2023-05-06T13:58:14;26.20;58.90
31733;DHT22;18312;51.486;7.144;2023-05-06T14:00:42;25.60;56.80
31733;DHT22;18312;51.486;7.144;2023-05-06T14:03:08;25.60;57.40
31733;DHT22;18312;51.486;7.144;2023-05-06T14:05:35;25.70;57.40
31733;DHT22;18312;51.486;7.144;2023-05-06T14:08:02;25.60;58.50
31733;DHT22;18312;51.486;7.144;2023-05-06T14:10:28;25.80;56.10
31733;DHT22;18312;51.486;7.144;2023-05-06T14:12:56;26.30;57.30
31733;DHT22;18312;51.486;7.144;2023-05-06T14:15:23;26.50;56.00
31733;DHT22;18312;51.486;7.144;2023-05-06T14:17:50;26.70;55.60
31733;DHT22;18312;51.486;7.144;2023-05-06T14:20:16;26.50;54.70
31733;DHT22;18312;51.486;7.144;2023-05-06T14:22:43;26.50;54.60
31733;DHT22;18312;51.486;7.144;2023-05-06T14:25:10;26.00;53.20
31733;DHT22;18312;51.486;7.144;2023-05-06T14:27:36;25.80;55.40
31733;DHT22;18312;51.486;7.144;2023-05-06T14:30:05;25.80;57.70
31733;DHT22;18312;51.486;7.144;2023-05-06T14:32:31;24.90;57.60
31733;DHT22;18312;51.486;7.144;2023-05-06T14:34:59;24.90;57.80
31733;DHT22;18312;51.486;7.144;2023-05-06T14:37:26;24.80;59.00
31733;DHT22;18312;51.486;7.144;2023-05-06T14:39:52;24.60;58.70
31733;DHT22;18312;51.486;7.144;2023-05-06T14:42:22;24.40;59.60
31733;DHT22;18312;51.486;7.144;2023-05-06T14:44:49;24.20;58.50
31733;DHT22;18312;51.486;7.144;2023-05-06T14:47:16;24.30;60.50
31733;DHT22;18312;51.486;7.144;2023-05-06T14:49:43;24.20;59.00
31733;DHT22;18312;51.486;7.144;2023-05-06T14:52:10;24.10;60.40
31733;DHT22;18312;51.486;7.144;2023-05-06T14:54:36;24.20;61.60
31733;DHT22;18312;51.486;7.144;2023-05-06T14:57:06;24.00;61.50
31733;DHT22;18312;51.486;7.144;2023-05-06T14:59:34;23.90;59.10
31733;DHT22;18312;51.486;7.144;2023-05-06T15:02:00;23.50;58.10
31733;DHT22;18312;51.486;7.144;2023-05-06T15:04:29;23.30;59.10
31733;DHT22;18312;51.486;7.144;2023-05-06T15:06:56;23.30;60.10
31733;DHT22;18312;51.486;7.144;2023-05-06T15:09:22;23.30;60.90
31733;DHT22;18312;51.486;7.144;2023-05-06T15:11:49;23.20;61.00
31733;DHT22;18312;51.486;7.144;2023-05-06T15:14:15;23.10;60.60
31733;DHT22;18312;51.486;7.144;2023-05-06T15:16:42;22.80;59.70
31733;DHT22;18312;51.486;7.144;2023-05-06T15:19:08;22.60;61.80
31733;DHT22;18312;51.486;7.144;2023-05-06T15:21:36;22.60;61.70
31733;DHT22;18312;51.486;7.144;2023-05-06T15:24:03;22.50;61.50
31733;DHT22;18312;51.486;7.144;2023-05-06T15:26:30;22.40;66.70
31733;DHT22;18312;51.486;7.144;2023-05-06T15:28:56;22.30;61.70
31733;DHT22;18312;51.486;7.144;2023-05-06T15:31:23;22.20;63.40
31733;DHT22;18312;51.486;7.144;2023-05-06T15:33:50;22.30;62.80
31733;DHT22;18312;51.486;7.144;2023-05-06T15:36:16;22.30;65.00
31733;DHT22;18312;51.486;7.144;2023-05-06T15:38:55;22.20;63.80
31733;DHT22;18312;51.486;7.144;2023-05-06T15:41:23;22.20;63.20
31733;DHT22;18312;51.486;7.144;2023-05-06T15:43:51;22.30;65.50